Time;durP1;ratioP1;P1;durP2;ratioP2;P2;SDS_P1;SDS_P2;PMS_P1;PMS_P2;Temp;Humidity;BMP_temperature;BMP_pressure;BME280_temperature;BME280_humidity;BME280_pressure;Samples;Min_cycle;Max_cycle;Signal;HPM_P1;HPM_P2
2022/04/20 00:02:13;;;;;;;;;;;;;;;;;;;;;
2022/04/20 00:04:57;;;;;;;;;;;;;;;;;;;;;
2022/04/20 00:08:02;;;;;;;;;;;;;;;;;;;;;
2022/04/20 00:10:58;;;;;;;;;;;;;;;;;;;;;
2022/04/20 00:20:30;;;;;;;;;;;;;;;;;;;;;
2022/04/20 00:22:55;;;;;;;;;;;10.20;99.90;;;;;;6337918;22;19977;-82
2022/04/20 00:29:17;;;;;;;;;;;;;;;;;;;;;
2022/04/20 00:35:10;;;;;;;;;;;10.10;99.90;;;;;;6319104;22;19938;-82
2022/04/20 00:37:35;;;;;;;;;;;;;;;;;;;;;
2022/04/20 00:40:52;;;;;;;;;;;;;;;;;;;;;
2022/04/20 00:43:18;;;;;;;;;;;10.10;99.90;;;;;;6334821;22;19903;-82
2022/04/20 00:49:19;;;;;;;;;;;10.10;99.90;;;;;;6266429;22;19950;-82
2022/04/20 00:58:53;;;;;;;;;;;10.00;99.90;;;;;;6344112;22;19906;-83
2022/04/20 01:01:42;;;;;;;;;;;9.90;99.90;;;;;;6338353;22;19903;-82
2022/04/20 01:11:12;;;;;;;;;;;9.90;99.90;;;;;;6280516;22;19903;-82
2022/04/20 01:28:40;;;;;;;;;;;9.60;99.90;;;;;;6319061;22;19906;-83
2022/04/20 01:31:08;;;;;;;;;;;9.60;99.90;;;;;;6316531;22;19917;-82
2022/04/20 01:33:42;;;;;;;;;;;9.60;99.90;;;;;;6318361;22;19962;-82
2022/04/20 01:36:13;;;;;;;;;;;9.50;99.90;;;;;;6317044;22;19938;-82
2022/04/20 01:45:04;;;;;;;;;;;9.40;99.90;;;;;;6328353;22;20291;-83
2022/04/20 01:53:31;;;;;;;;;;;;;;;;;;;;;
2022/04/20 02:05:07;;;;;;;;;;;9.30;99.90;;;;;;6301237;22;19968;-82
2022/04/20 02:07:45;;;;;;;;;;;9.30;99.90;;;;;;6348630;22;20024;-82
2022/04/20 02:10:35;;;;;;;;;;;;;;;;;;;;;
2022/04/20 02:13:23;;;;;;;;;;;9.20;99.90;;;;;;6345439;22;19949;-82
2022/04/20 02:16:43;;;;;;;;;;;;;;;;;;;;;
2022/04/20 02:19:34;;;;;;;;;;;9.20;99.90;;;;;;6300658;22;19907;-82
2022/04/20 02:25:31;;;;;;;;;;;;;;;;;;;;;
2022/04/20 02:31:20;;;;;;;;;;;9.00;99.90;;;;;;6264753;22;19924;-82
2022/04/20 02:40:10;;;;;;;;;;;;;;;;;;;;;
2022/04/20 02:43:02;;;;;;;;;;;8.70;99.90;;;;;;6345108;22;19938;-82
2022/04/20 02:46:05;;;;;;;;;;;8.70;99.90;;;;;;6344384;22;19967;-82
2022/04/20 02:52:24;;;;;;;;;;;8.70;99.90;;;;;;6326892;22;19903;-82
2022/04/20 03:01:00;;;;;;;;;;;;;;;;;;;;;
2022/04/20 03:03:54;;;;;;;;;;;8.70;99.90;;;;;;6344118;22;19930;-82
2022/04/20 03:16:11;;;;;;;;;;;8.70;99.90;;;;;;6218433;23;20363;-81
2022/04/20 03:22:11;;;;;;;;;;;8.50;99.90;;;;;;6242178;23;20273;-82
2022/04/20 03:25:04;;;;;;;;;;;8.50;99.90;;;;;;6192782;22;19902;-83
2022/04/20 03:28:08;;;;;;;;;;;;;;;;;;;;;
2022/04/20 03:39:56;;;;;;;;;;;8.40;99.90;;;;;;6280105;22;19926;-82
2022/04/20 03:42:55;;;;;;;;;;;;;;;;;;;;;
2022/04/20 03:51:47;;;;;;;;;;;;;;;;;;;;;
2022/04/20 04:00:43;;;;;;;;;;;;;;;;;;;;;
2022/04/20 04:03:19;;;;;;;;;;;8.20;99.90;;;;;;6346465;22;19925;-81
2022/04/20 04:05:45;;;;;;;;;;;8.20;99.90;;;;;;6318387;22;19913;-81
2022/04/20 04:11:32;;;;;;;;;;;;;;;;;;;;;
2022/04/20 04:14:36;;;;;;;;;;;8.20;99.90;;;;;;6332313;22;20399;-81
2022/04/20 04:29:08;;;;;;;;;;;8.10;99.90;;;;;;6284772;22;19920;-82
2022/04/20 04:34:41;;;;;;;;;;;8.10;99.90;;;;;;6271912;22;19918;-83
2022/04/20 04:37:58;;;;;;;;;;;;;;;;;;;;;
2022/04/20 04:43:36;;;;;;;;;;;8.20;99.90;;;;;;6249266;23;20008;-83
2022/04/20 04:49:26;;;;;;;;;;;8.30;99.90;;;;;;6254981;23;19956;-83
2022/04/20 04:51:53;;;;;;;;;;;8.40;99.90;;;;;;6252884;23;20020;-83
2022/04/20 04:54:23;;;;;;;;;;;8.40;99.90;;;;;;6228419;23;19911;-83
2022/04/20 05:00:32;;;;;;;;;;;;;;;;;;;;;
2022/04/20 05:03:16;;;;;;;;;;;;;;;;;;;;;
2022/04/20 05:05:47;;;;;;;;;;;8.80;99.90;;;;;;6245816;22;20262;-83
2022/04/20 05:08:33;;;;;;;;;;;8.90;99.90;;;;;;6227711;23;19903;-83
2022/04/20 05:23:35;;;;;;;;;;;;;;;;;;;;;
2022/04/20 05:43:35;;;;;;;;;;;25.60;99.90;;;;;;6255165;23;19915;-83
2022/04/20 05:46:01;;;;;;;;;;;27.40;99.90;;;;;;6227576;23;19912;-83
2022/04/20 05:48:27;;;;;;;;;;;28.90;99.90;;;;;;6229593;23;19937;-84
2022/04/20 05:50:55;;;;;;;;;;;30.40;99.90;;;;;;6227819;23;20008;-84
2022/04/20 05:53:20;;;;;;;;;;;31.50;99.90;;;;;;6254380;23;19912;-84
2022/04/20 05:55:48;;;;;;;;;;;32.60;99.90;;;;;;6228797;23;19926;-85
2022/04/20 05:58:16;;;;;;;;;;;33.40;99.90;;;;;;6228536;23;19924;-84
2022/04/20 06:00:54;;;;;;;;;;;;;;;;;;;;;
2022/04/20 06:06:59;;;;;;;;;;;;;;;;;;;;;
2022/04/20 06:15:08;;;;;;;;;;;38.10;99.90;;;;;;6239325;22;19915;-84
2022/04/20 06:17:39;;;;;;;;;;;38.90;99.90;;;;;;6229122;23;19904;-83
2022/04/20 06:20:05;;;;;;;;;;;39.40;99.90;;;;;;6254343;23;19907;-82
2022/04/20 06:22:33;;;;;;;;;;;39.90;99.90;;;;;;6229600;23;19904;-82
2022/04/20 06:24:58;;;;;;;;;;;40.50;99.90;;;;;;6254907;22;19911;-82
2022/04/20 06:27:31;;;;;;;;;;;40.80;99.90;;;;;;6256764;23;20441;-83
2022/04/20 06:29:59;;;;;;;;;;;41.10;99.90;;;;;;6227773;23;19923;-83
2022/04/20 06:32:25;;;;;;;;;;;41.20;99.90;;;;;;6254701;23;19982;-82
2022/04/20 06:34:53;;;;;;;;;;;40.60;99.90;;;;;;6254759;22;19908;-83
2022/04/20 06:37:19;;;;;;;;;;;41.20;99.90;;;;;;6226942;23;20059;-83
2022/04/20 06:39:49;;;;;;;;;;;41.80;99.90;;;;;;6255701;23;19946;-83
2022/04/20 06:42:17;;;;;;;;;;;42.10;99.90;;;;;;6256477;23;19990;-83
2022/04/20 06:44:45;;;;;;;;;;;41.30;99.90;;;;;;6256391;22;19934;-83
2022/04/20 06:47:13;;;;;;;;;;;41.30;99.90;;;;;;6227441;23;19914;-83
2022/04/20 06:49:38;;;;;;;;;;;41.60;99.90;;;;;;6254831;23;19961;-83
2022/04/20 07:00:24;;;;;;;;;;;41.70;99.90;;;;;;6257464;23;19930;-82
2022/04/20 07:02:57;;;;;;;;;;;41.30;99.90;;;;;;6229461;23;19926;-83
2022/04/20 07:05:26;;;;;;;;;;;41.30;99.90;;;;;;6231440;23;19927;-83
2022/04/20 07:07:51;;;;;;;;;;;41.60;99.90;;;;;;6258262;23;19911;-82
2022/04/20 07:10:17;;;;;;;;;;;41.20;99.90;;;;;;6229596;23;19904;-83
2022/04/20 07:12:50;;;;;;;;;;;40.90;99.90;;;;;;6255607;23;20321;-83
2022/04/20 07:15:15;;;;;;;;;;;41.10;99.90;;;;;;6255264;22;20345;-83
2022/04/20 07:17:43;;;;;;;;;;;40.90;99.90;;;;;;6254805;23;19911;-83
2022/04/20 07:20:17;;;;;;;;;;;39.90;99.90;;;;;;6228378;23;19907;-82
2022/04/20 07:22:50;;;;;;;;;;;40.40;99.90;;;;;;6228503;23;19911;-84
2022/04/20 07:25:16;;;;;;;;;;;40.00;99.90;;;;;;6229633;23;19914;-83
2022/04/20 07:27:42;;;;;;;;;;;39.40;99.90;;;;;;6235511;23;20344;-82
2022/04/20 07:30:08;;;;;;;;;;;40.00;99.90;;;;;;6256067;22;19904;-83
2022/04/20 07:32:33;;;;;;;;;;;39.70;99.90;;;;;;6255690;23;19911;-83
2022/04/20 07:34:58;;;;;;;;;;;40.30;99.90;;;;;;6254710;22;20390;-83
2022/04/20 07:37:24;;;;;;;;;;;40.10;99.90;;;;;;6256106;23;20284;-82
2022/04/20 07:39:49;;;;;;;;;;;39.80;99.90;;;;;;6257638;23;19950;-82
2022/04/20 07:42:15;;;;;;;;;;;39.70;99.90;;;;;;6257033;23;19903;-83
2022/04/20 07:44:40;;;;;;;;;;;40.00;99.90;;;;;;6254537;22;19923;-82
2022/04/20 07:47:06;;;;;;;;;;;39.30;99.90;;;;;;6254270;23;19994;-82
2022/04/20 07:52:19;;;;;;;;;;;38.80;99.90;;;;;;6257255;23;19911;-82
2022/04/20 07:54:45;;;;;;;;;;;38.90;99.90;;;;;;6255226;22;19911;-82
2022/04/20 07:57:14;;;;;;;;;;;37.80;99.90;;;;;;6250892;23;19911;-82
2022/04/20 07:59:40;;;;;;;;;;;39.20;99.90;;;;;;6256693;22;19910;-82
2022/04/20 08:02:06;;;;;;;;;;;39.80;99.90;;;;;;6254649;23;19904;-83
2022/04/20 08:04:31;;;;;;;;;;;40.50;99.90;;;;;;6257956;22;19911;-82
2022/04/20 08:06:57;;;;;;;;;;;40.40;99.90;;;;;;6254285;22;19915;-82
2022/04/20 08:09:23;;;;;;;;;;;41.50;99.90;;;;;;6254941;23;19903;-82
2022/04/20 08:11:48;;;;;;;;;;;42.00;99.90;;;;;;6253443;23;19983;-82
2022/04/20 08:14:14;;;;;;;;;;;41.50;99.90;;;;;;6255950;23;19911;-82
2022/04/20 08:16:40;;;;;;;;;;;41.30;99.90;;;;;;6254268;22;19912;-82
2022/04/20 08:19:07;;;;;;;;;;;40.70;99.90;;;;;;6253576;23;19903;-82
2022/04/20 08:21:33;;;;;;;;;;;40.50;99.90;;;;;;6255331;22;19910;-82
2022/04/20 08:23:58;;;;;;;;;;;40.90;99.90;;;;;;6256112;23;19978;-82
2022/04/20 08:26:24;;;;;;;;;;;41.20;99.90;;;;;;6255402;22;19948;-82
2022/04/20 08:28:49;;;;;;;;;;;40.70;99.90;;;;;;6256243;23;19950;-82
2022/04/20 08:31:15;;;;;;;;;;;41.30;99.90;;;;;;6227620;23;20346;-82
2022/04/20 08:33:41;;;;;;;;;;;42.30;99.90;;;;;;6226132;23;19937;-83
2022/04/20 08:36:07;;;;;;;;;;;42.80;99.90;;;;;;6252573;22;19908;-82
2022/04/20 08:38:32;;;;;;;;;;;41.80;99.90;;;;;;6228397;23;20318;-82
2022/04/20 08:40:59;;;;;;;;;;;40.40;99.90;;;;;;6256008;23;19911;-82
2022/04/20 08:43:27;;;;;;;;;;;41.40;99.90;;;;;;6257276;23;19904;-82
2022/04/20 08:45:54;;;;;;;;;;;42.20;99.90;;;;;;6227803;23;19911;-82
2022/04/20 08:48:20;;;;;;;;;;;41.00;99.90;;;;;;6254127;23;19903;-82
2022/04/20 08:50:46;;;;;;;;;;;39.70;99.90;;;;;;6228137;23;19903;-82
2022/04/20 08:53:11;;;;;;;;;;;40.00;99.90;;;;;;6228684;23;19908;-82
2022/04/20 08:55:37;;;;;;;;;;;38.80;99.90;;;;;;6256585;22;20016;-82
2022/04/20 08:58:04;;;;;;;;;;;38.90;99.90;;;;;;6255008;23;19914;-82
2022/04/20 09:00:29;;;;;;;;;;;39.10;99.90;;;;;;6256460;23;19904;-82
2022/04/20 09:03:00;;;;;;;;;;;39.10;99.90;;;;;;6255850;23;19938;-82
2022/04/20 09:05:30;;;;;;;;;;;38.00;99.90;;;;;;6228631;23;19958;-82
2022/04/20 09:07:56;;;;;;;;;;;37.20;99.90;;;;;;6227403;23;19947;-81
2022/04/20 09:10:22;;;;;;;;;;;36.30;99.90;;;;;;6225646;23;20146;-82
2022/04/20 09:13:01;;;;;;;;;;;37.10;99.90;;;;;;6254428;23;19903;-82
2022/04/20 09:15:28;;;;;;;;;;;35.20;99.90;;;;;;6226497;23;19907;-81
2022/04/20 09:17:55;;;;;;;;;;;35.90;99.90;;;;;;6227914;23;19958;-81
2022/04/20 09:20:21;;;;;;;;;;;37.30;99.90;;;;;;6252783;23;20278;-82
2022/04/20 09:23:00;;;;;;;;;;;36.00;99.90;;;;;;6227332;23;19931;-82
2022/04/20 09:25:52;;;;;;;;;;;37.30;99.90;;;;;;6252331;22;19927;-81
2022/04/20 09:28:17;;;;;;;;;;;37.70;99.90;;;;;;6266683;22;19925;-82
2022/04/20 09:30:43;;;;;;;;;;;36.50;99.90;;;;;;6256818;23;19903;-81
2022/04/20 09:33:10;;;;;;;;;;;35.90;99.90;;;;;;6253422;23;19990;-82
2022/04/20 09:35:39;;;;;;;;;;;36.20;99.90;;;;;;6254020;22;19907;-82
2022/04/20 09:38:06;;;;;;;;;;;35.10;99.90;;;;;;6252216;23;19904;-81
2022/04/20 09:40:33;;;;;;;;;;;34.90;99.90;;;;;;6255641;22;19908;-82
2022/04/20 09:43:02;;;;;;;;;;;34.30;99.90;;;;;;6252673;23;19904;-82
2022/04/20 09:45:29;;;;;;;;;;;34.90;99.90;;;;;;6255555;22;19910;-82
2022/04/20 09:50:39;;;;;;;;;;;35.30;99.90;;;;;;6256289;23;19926;-82
2022/04/20 09:53:08;;;;;;;;;;;33.50;99.90;;;;;;6253580;23;19904;-84
2022/04/20 09:55:37;;;;;;;;;;;33.90;99.90;;;;;;6254338;22;19961;-82
2022/04/20 09:58:09;;;;;;;;;;;33.80;99.90;;;;;;6252310;23;19908;-83
2022/04/20 10:00:39;;;;;;;;;;;34.60;99.90;;;;;;6254175;23;20340;-83
2022/04/20 10:03:05;;;;;;;;;;;35.00;99.90;;;;;;6255715;22;19915;-83
2022/04/20 10:05:30;;;;;;;;;;;35.50;99.90;;;;;;6252923;22;19903;-83
2022/04/20 10:07:59;;;;;;;;;;;34.10;99.90;;;;;;6254505;23;19904;-83
2022/04/20 10:10:28;;;;;;;;;;;33.30;99.90;;;;;;6255850;23;19910;-83
2022/04/20 10:12:54;;;;;;;;;;;32.10;98.00;;;;;;6253002;23;19904;-83
2022/04/20 10:18:05;;;;;;;;;;;32.90;99.80;;;;;;6254204;23;19956;-83
2022/04/20 10:20:31;;;;;;;;;;;33.60;99.90;;;;;;6253837;23;19911;-83
2022/04/20 10:23:00;;;;;;;;;;;34.00;99.90;;;;;;6255607;22;20007;-83
2022/04/20 10:25:26;;;;;;;;;;;33.40;99.90;;;;;;6254506;22;19903;-83
2022/04/20 10:27:57;;;;;;;;;;;33.70;99.90;;;;;;6253597;23;20010;-83
2022/04/20 10:30:30;;;;;;;;;;;33.40;99.90;;;;;;6254730;23;19904;-83
2022/04/20 10:33:02;;;;;;;;;;;33.10;99.90;;;;;;6255897;22;19943;-83
2022/04/20 10:35:28;;;;;;;;;;;31.50;97.90;;;;;;6256478;22;19907;-83
2022/04/20 10:38:06;;;;;;;;;;;30.90;96.80;;;;;;6253123;23;19931;-83
2022/04/20 10:40:33;;;;;;;;;;;31.60;98.20;;;;;;6254413;23;19903;-83
2022/04/20 10:43:19;;;;;;;;;;;31.20;97.70;;;;;;6254115;23;19904;-83
2022/04/20 10:46:01;;;;;;;;;;;31.70;99.20;;;;;;6254440;22;19910;-83
2022/04/20 10:48:26;;;;;;;;;;;32.70;99.90;;;;;;6253470;23;19903;-83
2022/04/20 10:51:11;;;;;;;;;;;33.30;99.90;;;;;;6254235;23;19908;-83
2022/04/20 10:53:37;;;;;;;;;;;32.90;99.90;;;;;;6252387;23;19923;-82
2022/04/20 10:56:02;;;;;;;;;;;32.70;99.90;;;;;;6250197;22;19908;-83
2022/04/20 10:58:31;;;;;;;;;;;32.90;99.90;;;;;;6252710;23;19904;-82
2022/04/20 11:01:05;;;;;;;;;;;31.90;99.90;;;;;;6254439;23;19978;-83
2022/04/20 11:03:50;;;;;;;;;;;31.80;99.40;;;;;;6250682;23;19982;-82
2022/04/20 11:06:16;;;;;;;;;;;32.00;99.90;;;;;;6253722;22;19911;-82
2022/04/20 11:08:41;;;;;;;;;;;32.50;99.90;;;;;;6250906;23;20229;-83
2022/04/20 11:19:58;;;;;;;;;;;34.30;99.90;;;;;;6254852;23;19910;-83
2022/04/20 11:22:23;;;;;;;;;;;34.30;99.90;;;;;;6253885;22;19910;-83
2022/04/20 11:25:02;;;;;;;;;;;34.90;99.90;;;;;;6253423;22;20247;-83
2022/04/20 11:27:37;;;;;;;;;;;35.10;99.90;;;;;;6253543;22;19916;-83
2022/04/20 11:30:04;;;;;;;;;;;35.20;99.90;;;;;;6226813;23;19944;-83
2022/04/20 11:32:30;;;;;;;;;;;35.40;99.90;;;;;;6225994;23;19907;-83
2022/04/20 11:35:06;;;;;;;;;;;33.80;99.90;;;;;;6251322;22;19978;-83
2022/04/20 11:37:33;;;;;;;;;;;34.00;99.90;;;;;;6224791;23;19960;-82
2022/04/20 11:39:59;;;;;;;;;;;34.30;99.90;;;;;;6224725;23;19904;-82
2022/04/20 11:42:25;;;;;;;;;;;34.30;99.90;;;;;;6225375;23;19949;-83
2022/04/20 11:44:50;;;;;;;;;;;33.00;99.90;;;;;;6253450;22;19923;-82
2022/04/20 11:47:17;;;;;;;;;;;32.80;99.90;;;;;;6227831;23;19904;-83
2022/04/20 11:49:45;;;;;;;;;;;31.60;99.10;;;;;;6254383;23;19904;-82
2022/04/20 11:52:14;;;;;;;;;;;31.30;98.20;;;;;;6255243;23;19915;-83
2022/04/20 11:54:43;;;;;;;;;;;31.90;99.90;;;;;;6230545;22;19903;-83
2022/04/20 11:57:09;;;;;;;;;;;32.90;99.90;;;;;;6229865;23;19907;-83
2022/04/20 11:59:46;;;;;;;;;;;34.00;99.90;;;;;;6231144;23;19903;-83
2022/04/20 12:02:15;;;;;;;;;;;34.50;99.90;;;;;;6229439;23;19903;-83
2022/04/20 12:04:44;;;;;;;;;;;35.00;99.90;;;;;;6229871;22;19931;-83
2022/04/20 12:09:57;;;;;;;;;;;;;;;;;;;;;
2022/04/20 12:12:56;;;;;;;;;;;;;;;;;;;;;
2022/04/20 12:15:52;;;;;;;;;;;;;;;;;;;;;
2022/04/20 12:18:29;;;;;;;;;;;31.00;98.30;;;;;;6277705;22;20278;-82
2022/04/20 12:24:14;;;;;;;;;;;30.20;96.90;;;;;;6223733;22;19929;-85
2022/04/20 12:30:43;;;;;;;;;;;;;;;;;;;;;
2022/04/20 12:33:20;;;;;;;;;;;30.60;98.70;;;;;;6278785;22;19904;-83
2022/04/20 12:36:10;;;;;;;;;;;;;;;;;;;;;
2022/04/20 12:38:50;;;;;;;;;;;32.10;99.90;;;;;;6287961;22;19922;-80
2022/04/20 12:41:45;;;;;;;;;;;;;;;;;;;;;
2022/04/20 12:44:31;;;;;;;;;;;31.90;99.90;;;;;;6289584;22;19950;-81
2022/04/20 12:47:24;;;;;;;;;;;31.50;99.90;;;;;;6288002;22;19907;-81
2022/04/20 12:50:37;;;;;;;;;;;;;;;;;;;;;
2022/04/20 13:02:22;;;;;;;;;;;31.90;99.90;;;;;;6286235;22;19926;-83
2022/04/20 13:05:02;;;;;;;;;;;;;;;;;;;;;
2022/04/20 13:10:58;;;;;;;;;;;30.90;99.90;;;;;;6283660;22;19917;-81
2022/04/20 13:13:52;;;;;;;;;;;30.30;99.90;;;;;;6285131;22;19910;-80
2022/04/20 13:16:47;;;;;;;;;;;;;;;;;;;;;
2022/04/20 13:19:34;;;;;;;;;;;;;;;;;;;;;
2022/04/20 13:22:26;;;;;;;;;;;29.40;98.90;;;;;;6282694;22;19938;-80
2022/04/20 13:27:56;;;;;;;;;;;27.60;95.70;;;;;;6285200;22;19910;-81
2022/04/20 13:30:24;;;;;;;;;;;27.30;95.90;;;;;;6285828;22;19907;-81
2022/04/20 13:32:49;;;;;;;;;;;27.80;96.80;;;;;;6285581;22;19904;-81
2022/04/20 13:35:14;;;;;;;;;;;28.20;97.90;;;;;;6286232;22;19916;-81
2022/04/20 13:37:40;;;;;;;;;;;28.30;98.00;;;;;;6285928;22;19914;-81
2022/04/20 13:40:06;;;;;;;;;;;28.60;99.70;;;;;;6286208;22;19919;-81
2022/04/20 13:42:31;;;;;;;;;;;28.40;99.40;;;;;;6284740;22;19910;-81
2022/04/20 13:44:57;;;;;;;;;;;28.50;99.90;;;;;;6285272;22;19907;-81
2022/04/20 13:47:22;;;;;;;;;;;28.80;99.90;;;;;;6286263;22;19903;-82
2022/04/20 13:49:50;;;;;;;;;;;28.80;99.90;;;;;;6286268;22;19904;-81
2022/04/20 13:52:15;;;;;;;;;;;28.80;99.90;;;;;;6287527;22;20241;-81
2022/04/20 13:54:41;;;;;;;;;;;28.60;99.90;;;;;;6286379;22;19927;-82
2022/04/20 13:57:06;;;;;;;;;;;28.60;99.90;;;;;;6286170;22;20471;-82
2022/04/20 13:59:32;;;;;;;;;;;28.30;99.90;;;;;;6286926;22;19914;-82
2022/04/20 14:01:57;;;;;;;;;;;27.90;99.40;;;;;;6284637;22;19904;-82
2022/04/20 14:04:23;;;;;;;;;;;27.10;97.60;;;;;;6287148;22;20453;-81
2022/04/20 14:06:50;;;;;;;;;;;26.90;97.30;;;;;;6285532;22;19907;-81
2022/04/20 14:09:15;;;;;;;;;;;26.10;96.40;;;;;;6286812;22;20288;-82
2022/04/20 14:11:41;;;;;;;;;;;25.90;96.20;;;;;;6285827;22;19907;-83
2022/04/20 14:14:07;;;;;;;;;;;25.60;95.60;;;;;;6284695;22;19903;-82
2022/04/20 14:16:33;;;;;;;;;;;25.90;96.90;;;;;;6283424;22;19907;-82
2022/04/20 14:18:58;;;;;;;;;;;25.90;97.30;;;;;;6286206;22;19923;-83
2022/04/20 14:21:24;;;;;;;;;;;25.70;97.40;;;;;;6284343;22;20322;-82
2022/04/20 14:23:49;;;;;;;;;;;25.80;97.70;;;;;;6285781;22;19910;-82
2022/04/20 14:34:27;;;;;;;;;;;26.10;98.80;;;;;;6286975;22;19910;-82
2022/04/20 14:36:53;;;;;;;;;;;25.40;98.10;;;;;;6287022;22;19907;-82
2022/04/20 14:39:18;;;;;;;;;;;24.70;96.70;;;;;;6286686;22;19903;-82
2022/04/20 14:41:43;;;;;;;;;;;24.30;96.00;;;;;;6285534;22;19953;-82
2022/04/20 14:44:09;;;;;;;;;;;24.00;99.90;;;;;;6288120;22;19910;-82
2022/04/20 14:46:35;;;;;;;;;;;23.80;95.20;;;;;;6286056;22;19903;-82
2022/04/20 14:49:00;;;;;;;;;;;23.60;95.90;;;;;;6285850;22;20345;-81
2022/04/20 14:51:26;;;;;;;;;;;23.70;96.40;;;;;;6286868;22;20298;-82
2022/04/20 14:53:51;;;;;;;;;;;23.50;96.00;;;;;;6282071;22;20245;-82
2022/04/20 14:56:17;;;;;;;;;;;23.70;97.50;;;;;;6285718;22;19967;-82
2022/04/20 14:58:43;;;;;;;;;;;23.40;96.90;;;;;;6285395;22;19913;-81
2022/04/20 15:01:09;;;;;;;;;;;23.40;96.80;;;;;;6284807;22;19907;-81
2022/04/20 15:03:35;;;;;;;;;;;23.50;97.00;;;;;;6284714;22;20254;-81
2022/04/20 15:06:00;;;;;;;;;;;23.30;97.50;;;;;;6282703;22;19903;-79
2022/04/20 15:08:26;;;;;;;;;;;23.00;96.80;;;;;;6280865;22;19911;-80
2022/04/20 15:10:51;;;;;;;;;;;22.90;96.60;;;;;;6283304;22;19907;-80
2022/04/20 15:13:17;;;;;;;;;;;22.70;96.60;;;;;;6283869;22;19903;-80
2022/04/20 15:15:45;;;;;;;;;;;22.60;97.30;;;;;;6281726;22;19908;-80
2022/04/20 15:18:11;;;;;;;;;;;22.70;97.40;;;;;;6283067;22;19904;-79
2022/04/20 15:20:37;;;;;;;;;;;23.00;98.90;;;;;;6287075;22;20340;-80
2022/04/20 15:23:02;;;;;;;;;;;23.00;99.50;;;;;;6287156;22;20439;-79
2022/04/20 15:25:28;;;;;;;;;;;23.00;99.20;;;;;;6286893;22;19903;-80
2022/04/20 15:27:54;;;;;;;;;;;22.90;99.60;;;;;;6285576;22;19970;-80
2022/04/20 15:30:20;;;;;;;;;;;22.60;99.20;;;;;;6286735;22;20253;-80
2022/04/20 15:32:46;;;;;;;;;;;22.70;99.70;;;;;;6285644;22;19914;-80
2022/04/20 15:35:13;;;;;;;;;;;22.70;99.30;;;;;;6284919;22;20032;-80
2022/04/20 15:37:39;;;;;;;;;;;22.70;99.60;;;;;;6286313;22;19904;-82
2022/04/20 15:40:05;;;;;;;;;;;22.70;99.90;;;;;;6287065;22;19986;-82
2022/04/20 15:42:32;;;;;;;;;;;22.60;99.90;;;;;;6286618;22;19903;-82
2022/04/20 15:44:57;;;;;;;;;;;22.40;99.90;;;;;;6284954;22;19942;-81
2022/04/20 15:47:23;;;;;;;;;;;22.40;99.90;;;;;;6284498;22;19911;-82
2022/04/20 15:49:48;;;;;;;;;;;22.40;99.90;;;;;;6286485;22;19957;-81
2022/04/20 15:52:14;;;;;;;;;;;22.40;99.90;;;;;;6286073;22;19982;-81
2022/04/20 15:54:39;;;;;;;;;;;22.10;99.90;;;;;;6286796;22;19911;-81
2022/04/20 16:02:34;;;;;;;;;;;22.00;99.90;;;;;;6281419;22;19911;-81
2022/04/20 16:05:00;;;;;;;;;;;22.00;99.90;;;;;;6286439;22;19919;-81
2022/04/20 16:07:30;;;;;;;;;;;21.80;99.90;;;;;;6287728;22;19911;-81
2022/04/20 16:09:56;;;;;;;;;;;21.70;99.90;;;;;;6286965;22;20820;-81
2022/04/20 16:12:23;;;;;;;;;;;21.90;99.90;;;;;;6287820;22;19907;-81
2022/04/20 16:14:49;;;;;;;;;;;22.00;99.90;;;;;;6287474;22;20341;-81
2022/04/20 16:17:14;;;;;;;;;;;22.10;99.90;;;;;;6286669;22;19903;-81
2022/04/20 16:19:46;;;;;;;;;;;22.00;99.90;;;;;;6286872;22;19903;-81
2022/04/20 16:22:11;;;;;;;;;;;21.90;99.90;;;;;;6288686;22;19926;-81
2022/04/20 16:24:37;;;;;;;;;;;21.60;99.90;;;;;;6286390;22;19978;-81
2022/04/20 16:27:02;;;;;;;;;;;21.50;99.90;;;;;;6282008;22;19911;-81
2022/04/20 16:29:29;;;;;;;;;;;21.30;99.90;;;;;;6285960;22;19931;-81
2022/04/20 16:31:55;;;;;;;;;;;21.30;99.90;;;;;;6286181;22;19903;-81
2022/04/20 16:34:21;;;;;;;;;;;21.30;99.90;;;;;;6281717;22;20033;-81
2022/04/20 16:36:48;;;;;;;;;;;21.30;99.90;;;;;;6283310;22;19949;-81
2022/04/20 16:39:16;;;;;;;;;;;21.40;99.90;;;;;;6285179;22;20277;-82
2022/04/20 16:41:42;;;;;;;;;;;21.40;99.90;;;;;;6285185;22;20029;-81
2022/04/20 16:44:07;;;;;;;;;;;21.50;99.90;;;;;;6285235;22;19903;-81
2022/04/20 16:46:34;;;;;;;;;;;21.40;99.90;;;;;;6283823;22;19911;-81
2022/04/20 16:48:59;;;;;;;;;;;21.30;99.90;;;;;;6285424;22;19953;-82
2022/04/20 16:51:25;;;;;;;;;;;21.10;99.90;;;;;;6285095;22;19908;-82
2022/04/20 16:53:53;;;;;;;;;;;21.10;99.90;;;;;;6284473;22;19910;-82
2022/04/20 16:56:18;;;;;;;;;;;21.10;99.90;;;;;;6284109;22;19903;-81
2022/04/20 16:58:53;;;;;;;;;;;20.90;99.90;;;;;;6285348;22;20378;-83
2022/04/20 17:01:19;;;;;;;;;;;20.80;99.90;;;;;;6284266;22;19907;-82
2022/04/20 17:03:44;;;;;;;;;;;20.60;99.90;;;;;;6287286;22;19911;-81
2022/04/20 17:06:10;;;;;;;;;;;20.40;99.90;;;;;;6287279;22;19907;-81
2022/04/20 17:08:35;;;;;;;;;;;20.40;99.90;;;;;;6286465;22;19919;-82
2022/04/20 17:11:01;;;;;;;;;;;20.30;99.90;;;;;;6291347;22;19908;-82
2022/04/20 17:13:26;;;;;;;;;;;20.30;99.90;;;;;;6290359;22;19907;-82
2022/04/20 17:15:52;;;;;;;;;;;20.20;99.90;;;;;;6290869;22;19907;-83
2022/04/20 17:18:17;;;;;;;;;;;20.00;99.90;;;;;;6288714;22;19949;-82
2022/04/20 17:28:57;;;;;;;;;;;19.80;99.90;;;;;;6291135;22;19960;-82
2022/04/20 17:31:22;;;;;;;;;;;19.70;99.90;;;;;;6290132;22;19947;-82
2022/04/20 17:33:48;;;;;;;;;;;19.80;99.90;;;;;;6287990;22;20292;-83
2022/04/20 17:38:57;;;;;;;;;;;19.80;99.90;;;;;;6290877;22;19910;-82
2022/04/20 17:41:23;;;;;;;;;;;19.70;99.90;;;;;;6288809;22;19923;-81
2022/04/20 17:43:48;;;;;;;;;;;19.60;99.90;;;;;;6285835;22;19910;-82
2022/04/20 17:46:14;;;;;;;;;;;19.60;99.90;;;;;;6283480;22;19968;-82
2022/04/20 17:48:40;;;;;;;;;;;19.50;99.90;;;;;;6282945;22;19907;-81
2022/04/20 17:51:05;;;;;;;;;;;19.40;99.90;;;;;;6282769;22;19925;-82
2022/04/20 17:53:31;;;;;;;;;;;19.20;99.90;;;;;;6282588;22;19903;-82
2022/04/20 17:55:56;;;;;;;;;;;19.10;99.90;;;;;;6285695;22;19914;-81
2022/04/20 17:58:22;;;;;;;;;;;18.90;99.90;;;;;;6284959;22;19904;-81
2022/04/20 18:00:48;;;;;;;;;;;18.80;99.90;;;;;;6286715;22;19942;-82
2022/04/20 18:03:13;;;;;;;;;;;18.70;99.90;;;;;;6284220;22;19903;-81
2022/04/20 18:05:40;;;;;;;;;;;18.60;99.90;;;;;;6283462;22;19942;-81
2022/04/20 18:08:06;;;;;;;;;;;18.50;99.90;;;;;;6282505;22;19965;-84
2022/04/20 18:10:34;;;;;;;;;;;18.40;99.90;;;;;;6285227;22;19907;-84
2022/04/20 18:13:00;;;;;;;;;;;18.30;99.90;;;;;;6284896;22;19907;-83
2022/04/20 18:15:25;;;;;;;;;;;18.10;99.90;;;;;;6285291;22;19910;-83
2022/04/20 18:17:51;;;;;;;;;;;18.10;99.90;;;;;;6283489;22;19907;-83
2022/04/20 18:20:17;;;;;;;;;;;18.00;99.90;;;;;;6282974;22;19911;-82
2022/04/20 18:22:42;;;;;;;;;;;17.90;99.90;;;;;;6282929;22;19907;-84
2022/04/20 18:25:08;;;;;;;;;;;17.80;99.90;;;;;;6284610;22;19903;-83
2022/04/20 18:27:34;;;;;;;;;;;17.70;99.90;;;;;;6282716;22;20276;-83
2022/04/20 18:29:59;;;;;;;;;;;17.60;99.90;;;;;;6283407;22;19904;-83
2022/04/20 18:32:25;;;;;;;;;;;17.50;99.90;;;;;;6282654;22;19985;-83
2022/04/20 18:34:51;;;;;;;;;;;17.50;99.90;;;;;;6284562;22;19903;-84
2022/04/20 18:37:17;;;;;;;;;;;17.40;99.90;;;;;;6282730;22;19973;-83
2022/04/20 18:39:43;;;;;;;;;;;17.30;99.90;;;;;;6285353;22;19903;-83
2022/04/20 18:42:09;;;;;;;;;;;17.30;99.90;;;;;;6283120;22;19903;-83
2022/04/20 18:44:35;;;;;;;;;;;17.20;99.90;;;;;;6283026;22;19978;-83
2022/04/20 18:47:01;;;;;;;;;;;17.10;99.90;;;;;;6282518;22;19913;-83
2022/04/20 18:49:26;;;;;;;;;;;17.00;99.90;;;;;;6283279;22;19915;-83
2022/04/20 18:51:52;;;;;;;;;;;16.90;99.90;;;;;;6283584;22;19915;-83
2022/04/20 18:59:46;;;;;;;;;;;16.70;99.90;;;;;;6286133;22;19989;-83
2022/04/20 19:02:11;;;;;;;;;;;16.60;99.90;;;;;;6284690;22;20343;-82
2022/04/20 19:04:49;;;;;;;;;;;16.50;99.90;;;;;;6284936;22;19904;-81
2022/04/20 19:07:21;;;;;;;;;;;16.50;99.90;;;;;;6284143;22;19914;-83
2022/04/20 19:09:52;;;;;;;;;;;16.50;99.90;;;;;;6286496;22;19903;-82
2022/04/20 19:12:21;;;;;;;;;;;16.40;99.90;;;;;;6285539;22;19903;-81
2022/04/20 19:14:46;;;;;;;;;;;16.30;99.90;;;;;;6284221;22;19908;-82
2022/04/20 19:17:12;;;;;;;;;;;16.20;99.90;;;;;;6282546;22;19903;-81
2022/04/20 19:19:40;;;;;;;;;;;16.10;99.90;;;;;;6283836;22;19904;-81
2022/04/20 19:22:05;;;;;;;;;;;16.00;99.90;;;;;;6285369;22;19910;-82
2022/04/20 19:24:31;;;;;;;;;;;15.90;99.90;;;;;;6283237;22;20277;-84
2022/04/20 19:26:58;;;;;;;;;;;15.90;99.90;;;;;;6285218;22;19912;-81
2022/04/20 19:29:24;;;;;;;;;;;15.90;99.90;;;;;;6286190;22;19903;-81
2022/04/20 19:31:52;;;;;;;;;;;15.80;99.90;;;;;;6285451;22;20246;-81
2022/04/20 19:34:21;;;;;;;;;;;15.80;99.90;;;;;;6286345;22;19903;-82
2022/04/20 19:36:47;;;;;;;;;;;15.70;99.90;;;;;;6286287;22;19904;-81
2022/04/20 19:39:18;;;;;;;;;;;15.60;99.90;;;;;;6283793;22;20032;-82
2022/04/20 19:41:44;;;;;;;;;;;15.50;99.90;;;;;;6283675;22;19904;-82
2022/04/20 19:44:12;;;;;;;;;;;15.40;99.90;;;;;;6285340;22;19935;-82
2022/04/20 19:46:40;;;;;;;;;;;15.30;99.90;;;;;;6284856;22;19908;-82